LIMJ Airport Information

Runway Information
Runway 10 Length 9564 ft width 148 ft Elevation 9 ft Threshold N/A Heading 105
Runway 28 Length 9564 ft Width 148 ft Elevation 12 ft Threshold 528 ft Heading 285
Airport Frequencies
Type APP Name APP Frequency 119.6 MHZ
Type ATIS Name ATIS Frequency 122.825 MHZ
Type TWR Name TWR Frequency 118.6 MHZ
Airport Navaids
Type VOR-DME Name Genova Frequency 112800 KHZ
Type NDB Name Genova Frequency 318 KHZ
Type VOR-DME Name Genova Sestri Frequency 108600 KHZ
Airport Weather Information & NOTAM
ADDS - METARS form results

(1127 UTC 30 January 2023)
Data provider http://aviationweather.gov/metar/data/
 
METAR text: LIMJ 301120Z 12014KT 9999 BKN035 11/07 Q1019
Conditions at: LIMJ (GENOVA/SESTRI , IT) observed 1120 UTC 30 January 2023
Temperature: 11.0°C (52°F)
Dewpoint: 7.0°C (45°F) [RH = 76%]
Pressure (altimeter): 30.09 inches Hg (1019.0 mb)
Winds: from the ESE (120 degrees) at 16 MPH (14 knots; 7.2 m/s)
Visibility: 6 or more miles (10+ km)
Ceiling: 3500 feet AGL
Clouds: broken clouds at 3500 feet AGL
Weather: no significant weather observed at this time

METAR text: LIMJ 301050Z 12013KT 9999 BKN030 11/06 Q1020
Conditions at: LIMJ (GENOVA/SESTRI , IT) observed 1050 UTC 30 January 2023
Temperature: 11.0°C (52°F)
Dewpoint: 6.0°C (43°F) [RH = 71%]
Pressure (altimeter): 30.12 inches Hg (1020.0 mb)
Winds: from the ESE (120 degrees) at 15 MPH (13 knots; 6.7 m/s)
Visibility: 6 or more miles (10+ km)
Ceiling: 3000 feet AGL
Clouds: broken clouds at 3000 feet AGL
Weather: no significant weather observed at this time

Forecast for: LIMJ (GENOVA/SESTRI , IT)
Text: TAF LIMJ 301100Z 3012/3112 14012KT 9999 SCT025
Forecast period: 1200 to 1800 UTC 30 January 2023
Forecast type: FROM: standard forecast or significant change
Winds: from the SE (140 degrees) at 14 MPH (12 knots; 6.2 m/s)
Visibility: 6 or more miles (10+ km)
Ceiling: at least 12,000 feet AGL
Clouds: scattered clouds at 2500 feet AGL
Weather: no significant weather forecast for this period
Text: BECMG 3018/3020 03008KT
Forecast period: 1800 UTC 30 January 2023 to 1200 UTC 31 January 2023
Forecast type: BECOMING: Conditions expected to become as follows by 2000 UTC 30 January 2023
Winds: from the NNE (30 degrees) at 9 MPH (8 knots; 4.1 m/s)
Visibility: 6 or more miles (10+ km)
Ceiling: at least 12,000 feet AGL
Clouds: scattered clouds at 2500 feet AGL
Weather: no significant weather forecast for this period